sensor_id;sensor_type;location;lat;lon;timestamp;P1;durP1;ratioP1;P2;durP2;ratioP2
4055;SDS011;2043;52.184;8.690;2023-07-20T00:01:51;5.13;;;1.97;;
4055;SDS011;2043;52.184;8.690;2023-07-20T00:04:18;4.33;;;2.00;;
4055;SDS011;2043;52.184;8.690;2023-07-20T00:06:45;3.73;;;1.87;;
4055;SDS011;2043;52.184;8.690;2023-07-20T00:09:12;4.97;;;1.97;;
4055;SDS011;2043;52.184;8.690;2023-07-20T00:11:39;4.10;;;2.00;;
4055;SDS011;2043;52.184;8.690;2023-07-20T00:14:06;4.83;;;2.37;;
4055;SDS011;2043;52.184;8.690;2023-07-20T00:16:33;3.87;;;1.70;;
4055;SDS011;2043;52.184;8.690;2023-07-20T00:19:00;4.43;;;1.90;;
4055;SDS011;2043;52.184;8.690;2023-07-20T00:21:27;3.67;;;1.87;;
4055;SDS011;2043;52.184;8.690;2023-07-20T00:23:53;4.90;;;2.03;;
4055;SDS011;2043;52.184;8.690;2023-07-20T00:26:20;4.10;;;1.80;;
4055;SDS011;2043;52.184;8.690;2023-07-20T00:28:49;4.80;;;2.37;;
4055;SDS011;2043;52.184;8.690;2023-07-20T00:31:16;4.43;;;2.20;;
4055;SDS011;2043;52.184;8.690;2023-07-20T00:33:43;4.60;;;2.47;;
4055;SDS011;2043;52.184;8.690;2023-07-20T00:36:10;3.90;;;2.10;;
4055;SDS011;2043;52.184;8.690;2023-07-20T00:38:37;4.67;;;2.13;;
4055;SDS011;2043;52.184;8.690;2023-07-20T00:41:04;6.50;;;2.77;;
4055;SDS011;2043;52.184;8.690;2023-07-20T00:43:31;7.20;;;2.77;;
4055;SDS011;2043;52.184;8.690;2023-07-20T00:45:58;11.40;;;2.70;;
4055;SDS011;2043;52.184;8.690;2023-07-20T00:48:25;4.47;;;2.30;;
4055;SDS011;2043;52.184;8.690;2023-07-20T00:50:52;5.60;;;2.03;;
4055;SDS011;2043;52.184;8.690;2023-07-20T00:53:19;6.00;;;2.07;;
4055;SDS011;2043;52.184;8.690;2023-07-20T00:55:46;4.30;;;2.37;;
4055;SDS011;2043;52.184;8.690;2023-07-20T00:58:13;5.37;;;2.57;;
4055;SDS011;2043;52.184;8.690;2023-07-20T01:00:40;7.27;;;2.90;;
4055;SDS011;2043;52.184;8.690;2023-07-20T01:03:07;5.63;;;2.70;;
4055;SDS011;2043;52.184;8.690;2023-07-20T01:05:36;7.10;;;2.30;;
4055;SDS011;2043;52.184;8.690;2023-07-20T01:11:09;5.17;;;2.90;;
4055;SDS011;2043;52.184;8.690;2023-07-20T01:13:40;4.50;;;2.30;;
4055;SDS011;2043;52.184;8.690;2023-07-20T01:16:09;5.13;;;2.70;;
4055;SDS011;2043;52.184;8.690;2023-07-20T01:18:35;6.00;;;2.83;;
4055;SDS011;2043;52.184;8.690;2023-07-20T01:21:07;9.60;;;2.57;;
4055;SDS011;2043;52.184;8.690;2023-07-20T01:24:23;5.73;;;2.57;;
4055;SDS011;2043;52.184;8.690;2023-07-20T01:32:25;6.23;;;2.80;;
4055;SDS011;2043;52.184;8.690;2023-07-20T01:34:53;6.33;;;2.70;;
4055;SDS011;2043;52.184;8.690;2023-07-20T01:37:21;6.23;;;3.07;;
4055;SDS011;2043;52.184;8.690;2023-07-20T01:39:52;5.20;;;2.93;;
4055;SDS011;2043;52.184;8.690;2023-07-20T01:42:21;7.27;;;2.80;;
4055;SDS011;2043;52.184;8.690;2023-07-20T01:44:50;4.47;;;2.60;;
4055;SDS011;2043;52.184;8.690;2023-07-20T01:47:18;5.10;;;2.53;;
4055;SDS011;2043;52.184;8.690;2023-07-20T01:49:46;7.77;;;2.43;;
4055;SDS011;2043;52.184;8.690;2023-07-20T01:52:12;9.53;;;2.30;;
4055;SDS011;2043;52.184;8.690;2023-07-20T01:54:39;4.80;;;2.50;;
4055;SDS011;2043;52.184;8.690;2023-07-20T01:57:06;5.23;;;2.80;;
4055;SDS011;2043;52.184;8.690;2023-07-20T01:59:33;6.17;;;2.83;;
4055;SDS011;2043;52.184;8.690;2023-07-20T02:01:59;5.10;;;2.80;;
4055;SDS011;2043;52.184;8.690;2023-07-20T02:04:26;8.90;;;2.60;;
4055;SDS011;2043;52.184;8.690;2023-07-20T02:06:53;7.03;;;2.90;;
4055;SDS011;2043;52.184;8.690;2023-07-20T02:09:20;5.00;;;2.90;;
4055;SDS011;2043;52.184;8.690;2023-07-20T02:11:46;8.13;;;2.90;;
4055;SDS011;2043;52.184;8.690;2023-07-20T02:14:14;6.63;;;3.03;;
4055;SDS011;2043;52.184;8.690;2023-07-20T02:16:40;7.10;;;3.30;;
4055;SDS011;2043;52.184;8.690;2023-07-20T02:19:07;5.13;;;3.07;;
4055;SDS011;2043;52.184;8.690;2023-07-20T02:21:34;5.63;;;3.17;;
4055;SDS011;2043;52.184;8.690;2023-07-20T02:24:01;7.07;;;3.10;;
4055;SDS011;2043;52.184;8.690;2023-07-20T02:26:28;10.40;;;3.57;;
4055;SDS011;2043;52.184;8.690;2023-07-20T02:28:55;6.93;;;2.93;;
4055;SDS011;2043;52.184;8.690;2023-07-20T02:31:21;6.53;;;2.83;;
4055;SDS011;2043;52.184;8.690;2023-07-20T02:33:48;6.13;;;3.03;;
4055;SDS011;2043;52.184;8.690;2023-07-20T02:36:15;5.27;;;3.30;;
4055;SDS011;2043;52.184;8.690;2023-07-20T02:38:43;6.90;;;3.00;;
4055;SDS011;2043;52.184;8.690;2023-07-20T02:41:10;5.47;;;3.20;;
4055;SDS011;2043;52.184;8.690;2023-07-20T02:43:36;6.00;;;3.10;;
4055;SDS011;2043;52.184;8.690;2023-07-20T02:46:03;6.80;;;3.97;;
4055;SDS011;2043;52.184;8.690;2023-07-20T02:48:30;6.23;;;4.03;;
4055;SDS011;2043;52.184;8.690;2023-07-20T02:50:57;6.23;;;3.37;;
4055;SDS011;2043;52.184;8.690;2023-07-20T02:53:23;6.70;;;4.10;;
4055;SDS011;2043;52.184;8.690;2023-07-20T02:55:50;8.73;;;3.67;;
4055;SDS011;2043;52.184;8.690;2023-07-20T02:58:17;9.00;;;3.80;;
4055;SDS011;2043;52.184;8.690;2023-07-20T03:00:44;7.07;;;3.47;;
4055;SDS011;2043;52.184;8.690;2023-07-20T03:03:10;6.77;;;3.80;;
4055;SDS011;2043;52.184;8.690;2023-07-20T03:05:40;6.57;;;3.17;;
4055;SDS011;2043;52.184;8.690;2023-07-20T03:08:07;8.73;;;3.20;;
4055;SDS011;2043;52.184;8.690;2023-07-20T03:10:39;6.50;;;3.27;;
4055;SDS011;2043;52.184;8.690;2023-07-20T03:13:06;6.53;;;3.27;;
4055;SDS011;2043;52.184;8.690;2023-07-20T03:15:34;6.20;;;2.87;;
4055;SDS011;2043;52.184;8.690;2023-07-20T03:18:00;6.73;;;3.10;;
4055;SDS011;2043;52.184;8.690;2023-07-20T03:20:27;5.20;;;2.80;;
4055;SDS011;2043;52.184;8.690;2023-07-20T03:22:54;6.17;;;3.10;;
4055;SDS011;2043;52.184;8.690;2023-07-20T03:25:21;6.43;;;3.13;;
4055;SDS011;2043;52.184;8.690;2023-07-20T03:27:50;7.80;;;3.23;;
4055;SDS011;2043;52.184;8.690;2023-07-20T03:30:17;6.90;;;3.53;;
4055;SDS011;2043;52.184;8.690;2023-07-20T03:32:44;7.30;;;3.67;;
4055;SDS011;2043;52.184;8.690;2023-07-20T03:35:10;7.80;;;3.30;;
4055;SDS011;2043;52.184;8.690;2023-07-20T03:37:37;9.80;;;3.83;;
4055;SDS011;2043;52.184;8.690;2023-07-20T03:40:04;6.80;;;3.50;;
4055;SDS011;2043;52.184;8.690;2023-07-20T03:42:33;5.90;;;3.53;;
4055;SDS011;2043;52.184;8.690;2023-07-20T03:45:00;7.97;;;4.10;;
4055;SDS011;2043;52.184;8.690;2023-07-20T03:47:27;7.07;;;3.80;;
4055;SDS011;2043;52.184;8.690;2023-07-20T03:49:54;7.77;;;3.83;;
4055;SDS011;2043;52.184;8.690;2023-07-20T03:52:20;7.13;;;3.80;;
4055;SDS011;2043;52.184;8.690;2023-07-20T03:54:47;5.80;;;3.50;;
4055;SDS011;2043;52.184;8.690;2023-07-20T03:57:14;5.57;;;3.40;;
4055;SDS011;2043;52.184;8.690;2023-07-20T03:59:44;5.50;;;3.60;;
4055;SDS011;2043;52.184;8.690;2023-07-20T04:02:11;6.53;;;4.53;;
4055;SDS011;2043;52.184;8.690;2023-07-20T04:04:38;7.93;;;3.87;;
4055;SDS011;2043;52.184;8.690;2023-07-20T04:07:05;7.37;;;3.77;;
4055;SDS011;2043;52.184;8.690;2023-07-20T04:09:32;4.93;;;3.70;;
4055;SDS011;2043;52.184;8.690;2023-07-20T04:11:59;8.90;;;4.00;;
4055;SDS011;2043;52.184;8.690;2023-07-20T04:14:26;6.10;;;4.07;;
4055;SDS011;2043;52.184;8.690;2023-07-20T04:16:53;10.50;;;4.50;;
4055;SDS011;2043;52.184;8.690;2023-07-20T04:19:20;6.60;;;4.80;;
4055;SDS011;2043;52.184;8.690;2023-07-20T04:21:47;6.07;;;4.47;;
4055;SDS011;2043;52.184;8.690;2023-07-20T04:24:13;6.50;;;4.40;;
4055;SDS011;2043;52.184;8.690;2023-07-20T04:26:40;10.20;;;4.70;;
4055;SDS011;2043;52.184;8.690;2023-07-20T04:29:07;12.17;;;5.13;;
4055;SDS011;2043;52.184;8.690;2023-07-20T04:31:34;7.20;;;4.60;;
4055;SDS011;2043;52.184;8.690;2023-07-20T04:34:00;9.03;;;5.50;;
4055;SDS011;2043;52.184;8.690;2023-07-20T04:36:27;7.43;;;5.47;;
4055;SDS011;2043;52.184;8.690;2023-07-20T04:38:54;8.43;;;5.03;;
4055;SDS011;2043;52.184;8.690;2023-07-20T04:41:21;7.63;;;5.43;;
4055;SDS011;2043;52.184;8.690;2023-07-20T04:43:48;7.70;;;5.30;;
4055;SDS011;2043;52.184;8.690;2023-07-20T04:46:15;8.57;;;5.07;;
4055;SDS011;2043;52.184;8.690;2023-07-20T04:48:43;7.53;;;5.40;;
4055;SDS011;2043;52.184;8.690;2023-07-20T04:51:10;8.70;;;5.80;;
4055;SDS011;2043;52.184;8.690;2023-07-20T04:53:37;11.73;;;5.63;;
4055;SDS011;2043;52.184;8.690;2023-07-20T04:56:04;13.03;;;4.27;;
4055;SDS011;2043;52.184;8.690;2023-07-20T04:58:31;7.80;;;4.40;;
4055;SDS011;2043;52.184;8.690;2023-07-20T05:00:58;7.10;;;4.20;;
4055;SDS011;2043;52.184;8.690;2023-07-20T05:03:24;6.80;;;3.30;;
4055;SDS011;2043;52.184;8.690;2023-07-20T05:05:52;6.50;;;4.03;;
4055;SDS011;2043;52.184;8.690;2023-07-20T05:08:20;5.10;;;3.50;;
4055;SDS011;2043;52.184;8.690;2023-07-20T05:10:48;6.10;;;3.57;;
4055;SDS011;2043;52.184;8.690;2023-07-20T05:13:15;4.90;;;3.23;;
4055;SDS011;2043;52.184;8.690;2023-07-20T05:15:42;5.53;;;3.30;;
4055;SDS011;2043;52.184;8.690;2023-07-20T05:18:09;7.50;;;3.90;;
4055;SDS011;2043;52.184;8.690;2023-07-20T05:20:35;4.60;;;3.03;;
4055;SDS011;2043;52.184;8.690;2023-07-20T05:23:03;6.83;;;3.60;;
4055;SDS011;2043;52.184;8.690;2023-07-20T05:25:30;6.90;;;3.53;;
4055;SDS011;2043;52.184;8.690;2023-07-20T05:27:57;6.70;;;3.43;;
4055;SDS011;2043;52.184;8.690;2023-07-20T05:30:24;5.83;;;3.70;;
4055;SDS011;2043;52.184;8.690;2023-07-20T05:32:51;7.77;;;4.03;;
4055;SDS011;2043;52.184;8.690;2023-07-20T05:35:19;6.13;;;3.67;;
4055;SDS011;2043;52.184;8.690;2023-07-20T05:37:46;8.10;;;3.80;;
4055;SDS011;2043;52.184;8.690;2023-07-20T05:40:13;5.00;;;3.20;;
4055;SDS011;2043;52.184;8.690;2023-07-20T05:42:45;8.13;;;4.20;;
4055;SDS011;2043;52.184;8.690;2023-07-20T05:45:12;6.07;;;3.73;;
4055;SDS011;2043;52.184;8.690;2023-07-20T05:47:39;4.80;;;3.40;;
4055;SDS011;2043;52.184;8.690;2023-07-20T05:50:07;5.90;;;3.60;;
4055;SDS011;2043;52.184;8.690;2023-07-20T05:52:35;6.03;;;3.70;;
4055;SDS011;2043;52.184;8.690;2023-07-20T05:55:02;4.93;;;3.27;;
4055;SDS011;2043;52.184;8.690;2023-07-20T05:57:29;4.53;;;2.93;;
4055;SDS011;2043;52.184;8.690;2023-07-20T05:59:56;5.53;;;3.00;;
4055;SDS011;2043;52.184;8.690;2023-07-20T06:02:22;6.20;;;3.30;;
4055;SDS011;2043;52.184;8.690;2023-07-20T06:04:49;5.70;;;2.80;;
4055;SDS011;2043;52.184;8.690;2023-07-20T06:07:16;4.23;;;2.63;;
4055;SDS011;2043;52.184;8.690;2023-07-20T06:09:43;6.63;;;2.97;;
4055;SDS011;2043;52.184;8.690;2023-07-20T06:12:09;6.37;;;2.90;;
4055;SDS011;2043;52.184;8.690;2023-07-20T06:14:36;4.87;;;2.90;;
4055;SDS011;2043;52.184;8.690;2023-07-20T06:17:04;5.03;;;2.90;;
4055;SDS011;2043;52.184;8.690;2023-07-20T06:19:31;5.60;;;2.87;;
4055;SDS011;2043;52.184;8.690;2023-07-20T06:21:58;4.97;;;2.83;;
4055;SDS011;2043;52.184;8.690;2023-07-20T06:24:25;8.43;;;2.97;;
4055;SDS011;2043;52.184;8.690;2023-07-20T06:26:52;3.77;;;2.20;;
4055;SDS011;2043;52.184;8.690;2023-07-20T06:29:19;4.63;;;2.60;;
4055;SDS011;2043;52.184;8.690;2023-07-20T06:31:45;6.40;;;2.70;;
4055;SDS011;2043;52.184;8.690;2023-07-20T06:34:12;5.07;;;3.03;;
4055;SDS011;2043;52.184;8.690;2023-07-20T06:36:39;5.13;;;2.40;;
4055;SDS011;2043;52.184;8.690;2023-07-20T06:39:06;4.70;;;2.50;;
4055;SDS011;2043;52.184;8.690;2023-07-20T06:41:36;5.37;;;2.83;;
4055;SDS011;2043;52.184;8.690;2023-07-20T06:44:05;5.53;;;2.57;;
4055;SDS011;2043;52.184;8.690;2023-07-20T06:46:32;8.43;;;2.47;;
4055;SDS011;2043;52.184;8.690;2023-07-20T06:48:59;6.57;;;2.80;;
4055;SDS011;2043;52.184;8.690;2023-07-20T06:51:29;3.97;;;2.43;;
4055;SDS011;2043;52.184;8.690;2023-07-20T06:53:55;4.77;;;2.20;;
4055;SDS011;2043;52.184;8.690;2023-07-20T06:56:22;3.63;;;2.17;;
4055;SDS011;2043;52.184;8.690;2023-07-20T06:58:51;5.60;;;2.40;;
4055;SDS011;2043;52.184;8.690;2023-07-20T07:01:18;9.77;;;3.10;;
4055;SDS011;2043;52.184;8.690;2023-07-20T07:03:47;3.37;;;1.80;;
4055;SDS011;2043;52.184;8.690;2023-07-20T07:06:19;4.90;;;1.90;;
4055;SDS011;2043;52.184;8.690;2023-07-20T07:08:48;6.10;;;1.70;;
4055;SDS011;2043;52.184;8.690;2023-07-20T07:11:15;4.63;;;1.80;;
4055;SDS011;2043;52.184;8.690;2023-07-20T07:13:41;7.67;;;2.07;;
4055;SDS011;2043;52.184;8.690;2023-07-20T07:16:08;4.10;;;1.87;;
4055;SDS011;2043;52.184;8.690;2023-07-20T07:18:35;8.40;;;2.10;;
4055;SDS011;2043;52.184;8.690;2023-07-20T07:21:02;3.27;;;1.60;;
4055;SDS011;2043;52.184;8.690;2023-07-20T07:23:29;4.23;;;1.80;;
4055;SDS011;2043;52.184;8.690;2023-07-20T07:25:55;8.40;;;1.60;;
4055;SDS011;2043;52.184;8.690;2023-07-20T07:28:22;7.10;;;2.00;;
4055;SDS011;2043;52.184;8.690;2023-07-20T07:30:49;4.50;;;1.80;;
4055;SDS011;2043;52.184;8.690;2023-07-20T07:33:16;10.13;;;2.10;;
4055;SDS011;2043;52.184;8.690;2023-07-20T07:35:43;5.83;;;2.40;;
4055;SDS011;2043;52.184;8.690;2023-07-20T07:38:10;4.03;;;2.23;;
4055;SDS011;2043;52.184;8.690;2023-07-20T07:40:57;4.73;;;2.07;;
4055;SDS011;2043;52.184;8.690;2023-07-20T07:43:25;4.20;;;1.57;;
4055;SDS011;2043;52.184;8.690;2023-07-20T07:45:53;5.53;;;1.93;;
4055;SDS011;2043;52.184;8.690;2023-07-20T07:48:21;4.13;;;1.93;;
4055;SDS011;2043;52.184;8.690;2023-07-20T07:50:48;3.77;;;1.60;;
4055;SDS011;2043;52.184;8.690;2023-07-20T07:53:16;3.77;;;1.60;;
4055;SDS011;2043;52.184;8.690;2023-07-20T07:55:43;3.37;;;1.47;;
4055;SDS011;2043;52.184;8.690;2023-07-20T07:58:10;3.07;;;1.47;;
4055;SDS011;2043;52.184;8.690;2023-07-20T08:00:36;6.07;;;1.57;;
4055;SDS011;2043;52.184;8.690;2023-07-20T08:03:03;3.20;;;1.50;;
4055;SDS011;2043;52.184;8.690;2023-07-20T08:05:33;2.60;;;1.23;;
4055;SDS011;2043;52.184;8.690;2023-07-20T08:08:01;5.90;;;1.50;;
4055;SDS011;2043;52.184;8.690;2023-07-20T08:10:30;3.70;;;1.40;;
4055;SDS011;2043;52.184;8.690;2023-07-20T08:12:57;9.63;;;1.47;;
4055;SDS011;2043;52.184;8.690;2023-07-20T08:15:24;2.70;;;1.30;;
4055;SDS011;2043;52.184;8.690;2023-07-20T08:17:50;3.60;;;1.60;;
4055;SDS011;2043;52.184;8.690;2023-07-20T08:20:18;3.37;;;1.40;;
4055;SDS011;2043;52.184;8.690;2023-07-20T08:22:45;5.03;;;1.57;;
4055;SDS011;2043;52.184;8.690;2023-07-20T08:25:14;3.33;;;1.37;;
4055;SDS011;2043;52.184;8.690;2023-07-20T08:27:41;3.40;;;1.53;;
4055;SDS011;2043;52.184;8.690;2023-07-20T08:30:07;2.90;;;1.37;;
4055;SDS011;2043;52.184;8.690;2023-07-20T08:32:35;4.03;;;1.40;;
4055;SDS011;2043;52.184;8.690;2023-07-20T08:35:02;3.57;;;1.50;;
4055;SDS011;2043;52.184;8.690;2023-07-20T08:37:29;3.20;;;1.30;;
4055;SDS011;2043;52.184;8.690;2023-07-20T08:39:56;4.33;;;1.43;;
4055;SDS011;2043;52.184;8.690;2023-07-20T08:42:22;4.83;;;1.60;;
4055;SDS011;2043;52.184;8.690;2023-07-20T08:44:50;3.40;;;1.40;;
4055;SDS011;2043;52.184;8.690;2023-07-20T08:47:19;3.57;;;1.40;;
4055;SDS011;2043;52.184;8.690;2023-07-20T08:49:50;4.00;;;1.40;;
4055;SDS011;2043;52.184;8.690;2023-07-20T08:52:17;3.10;;;1.30;;
4055;SDS011;2043;52.184;8.690;2023-07-20T08:54:43;2.80;;;1.23;;
4055;SDS011;2043;52.184;8.690;2023-07-20T08:57:11;5.70;;;1.53;;
4055;SDS011;2043;52.184;8.690;2023-07-20T08:59:40;4.03;;;1.40;;
4055;SDS011;2043;52.184;8.690;2023-07-20T09:02:09;4.90;;;1.53;;
4055;SDS011;2043;52.184;8.690;2023-07-20T09:04:45;5.37;;;1.30;;
4055;SDS011;2043;52.184;8.690;2023-07-20T09:07:11;3.40;;;1.40;;
4055;SDS011;2043;52.184;8.690;2023-07-20T09:09:41;6.10;;;1.40;;
4055;SDS011;2043;52.184;8.690;2023-07-20T09:12:14;5.27;;;1.73;;
4055;SDS011;2043;52.184;8.690;2023-07-20T09:14:42;3.47;;;1.57;;
4055;SDS011;2043;52.184;8.690;2023-07-20T09:17:14;4.00;;;1.40;;
4055;SDS011;2043;52.184;8.690;2023-07-20T09:19:47;5.43;;;1.70;;
4055;SDS011;2043;52.184;8.690;2023-07-20T09:22:14;2.60;;;1.20;;
4055;SDS011;2043;52.184;8.690;2023-07-20T09:24:41;7.80;;;1.60;;
4055;SDS011;2043;52.184;8.690;2023-07-20T09:27:10;2.80;;;1.47;;
4055;SDS011;2043;52.184;8.690;2023-07-20T09:29:49;3.53;;;1.50;;
4055;SDS011;2043;52.184;8.690;2023-07-20T09:32:18;6.30;;;1.60;;
4055;SDS011;2043;52.184;8.690;2023-07-20T09:34:49;3.07;;;1.30;;
4055;SDS011;2043;52.184;8.690;2023-07-20T09:37:19;5.43;;;1.50;;
4055;SDS011;2043;52.184;8.690;2023-07-20T09:39:53;2.93;;;1.37;;
4055;SDS011;2043;52.184;8.690;2023-07-20T09:42:22;3.23;;;1.30;;
4055;SDS011;2043;52.184;8.690;2023-07-20T09:44:54;2.80;;;1.20;;
4055;SDS011;2043;52.184;8.690;2023-07-20T09:47:22;3.40;;;1.37;;
4055;SDS011;2043;52.184;8.690;2023-07-20T09:49:59;3.10;;;1.20;;
4055;SDS011;2043;52.184;8.690;2023-07-20T09:52:29;2.70;;;1.20;;
4055;SDS011;2043;52.184;8.690;2023-07-20T09:54:59;3.10;;;1.30;;
4055;SDS011;2043;52.184;8.690;2023-07-20T09:57:27;4.50;;;1.40;;
4055;SDS011;2043;52.184;8.690;2023-07-20T09:59:54;2.80;;;1.00;;
4055;SDS011;2043;52.184;8.690;2023-07-20T10:02:25;3.43;;;1.30;;
4055;SDS011;2043;52.184;8.690;2023-07-20T10:04:57;3.40;;;1.50;;
4055;SDS011;2043;52.184;8.690;2023-07-20T10:07:27;3.77;;;1.27;;
4055;SDS011;2043;52.184;8.690;2023-07-20T10:09:57;2.87;;;1.30;;
4055;SDS011;2043;52.184;8.690;2023-07-20T10:12:27;3.33;;;1.23;;
4055;SDS011;2043;52.184;8.690;2023-07-20T10:14:59;4.70;;;1.30;;
4055;SDS011;2043;52.184;8.690;2023-07-20T10:17:35;3.23;;;1.47;;
4055;SDS011;2043;52.184;8.690;2023-07-20T10:20:06;6.53;;;1.43;;
4055;SDS011;2043;52.184;8.690;2023-07-20T10:22:35;4.60;;;1.40;;
4055;SDS011;2043;52.184;8.690;2023-07-20T10:25:07;3.03;;;1.20;;
4055;SDS011;2043;52.184;8.690;2023-07-20T10:27:35;3.00;;;1.33;;
4055;SDS011;2043;52.184;8.690;2023-07-20T10:30:02;2.83;;;1.30;;
4055;SDS011;2043;52.184;8.690;2023-07-20T10:32:31;3.40;;;1.40;;
4055;SDS011;2043;52.184;8.690;2023-07-20T10:34:59;2.73;;;1.20;;
4055;SDS011;2043;52.184;8.690;2023-07-20T10:40:46;2.90;;;1.10;;
4055;SDS011;2043;52.184;8.690;2023-07-20T10:43:06;3.00;;;1.30;;
4055;SDS011;2043;52.184;8.690;2023-07-20T10:48:16;3.20;;;1.40;;
4055;SDS011;2043;52.184;8.690;2023-07-20T10:50:46;3.40;;;1.20;;
4055;SDS011;2043;52.184;8.690;2023-07-20T10:53:33;2.60;;;1.40;;
4055;SDS011;2043;52.184;8.690;2023-07-20T10:56:23;8.17;;;1.50;;
4055;SDS011;2043;52.184;8.690;2023-07-20T10:58:50;2.80;;;1.33;;
4055;SDS011;2043;52.184;8.690;2023-07-20T11:01:21;3.50;;;1.53;;
4055;SDS011;2043;52.184;8.690;2023-07-20T11:03:59;3.47;;;1.50;;
4055;SDS011;2043;52.184;8.690;2023-07-20T11:09:03;3.73;;;1.30;;
4055;SDS011;2043;52.184;8.690;2023-07-20T11:11:34;3.20;;;1.47;;
4055;SDS011;2043;52.184;8.690;2023-07-20T11:14:03;6.67;;;1.40;;
4055;SDS011;2043;52.184;8.690;2023-07-20T11:16:38;2.93;;;1.20;;
4055;SDS011;2043;52.184;8.690;2023-07-20T11:21:49;2.87;;;1.30;;
4055;SDS011;2043;52.184;8.690;2023-07-20T11:24:29;5.53;;;1.50;;
4055;SDS011;2043;52.184;8.690;2023-07-20T11:26:56;3.90;;;1.40;;
4055;SDS011;2043;52.184;8.690;2023-07-20T11:29:23;3.03;;;1.20;;
4055;SDS011;2043;52.184;8.690;2023-07-20T11:31:58;2.80;;;1.30;;
4055;SDS011;2043;52.184;8.690;2023-07-20T11:34:26;2.73;;;1.27;;
4055;SDS011;2043;52.184;8.690;2023-07-20T11:36:56;3.90;;;1.53;;
4055;SDS011;2043;52.184;8.690;2023-07-20T11:39:26;3.77;;;1.23;;
4055;SDS011;2043;52.184;8.690;2023-07-20T11:41:54;4.70;;;1.30;;
4055;SDS011;2043;52.184;8.690;2023-07-20T11:44:26;4.00;;;1.40;;
4055;SDS011;2043;52.184;8.690;2023-07-20T11:47:14;4.20;;;1.47;;
4055;SDS011;2043;52.184;8.690;2023-07-20T11:49:42;3.57;;;1.30;;
4055;SDS011;2043;52.184;8.690;2023-07-20T11:52:10;5.97;;;1.33;;
4055;SDS011;2043;52.184;8.690;2023-07-20T11:54:38;2.90;;;1.27;;
4055;SDS011;2043;52.184;8.690;2023-07-20T11:57:17;3.37;;;1.43;;
4055;SDS011;2043;52.184;8.690;2023-07-20T11:59:54;3.83;;;1.53;;
4055;SDS011;2043;52.184;8.690;2023-07-20T12:02:24;6.23;;;1.50;;
4055;SDS011;2043;52.184;8.690;2023-07-20T12:04:53;4.20;;;1.73;;
4055;SDS011;2043;52.184;8.690;2023-07-20T12:07:21;4.73;;;1.33;;
4055;SDS011;2043;52.184;8.690;2023-07-20T12:10:06;2.60;;;1.20;;
4055;SDS011;2043;52.184;8.690;2023-07-20T12:12:42;8.50;;;2.17;;
4055;SDS011;2043;52.184;8.690;2023-07-20T12:15:16;3.87;;;1.50;;
4055;SDS011;2043;52.184;8.690;2023-07-20T12:17:46;4.00;;;1.60;;
4055;SDS011;2043;52.184;8.690;2023-07-20T12:20:35;3.97;;;1.40;;
4055;SDS011;2043;52.184;8.690;2023-07-20T12:23:12;3.80;;;1.57;;
4055;SDS011;2043;52.184;8.690;2023-07-20T12:25:40;4.27;;;1.77;;
4055;SDS011;2043;52.184;8.690;2023-07-20T12:28:08;4.00;;;1.60;;
4055;SDS011;2043;52.184;8.690;2023-07-20T12:30:37;3.70;;;1.60;;
4055;SDS011;2043;52.184;8.690;2023-07-20T12:33:04;5.03;;;1.53;;
4055;SDS011;2043;52.184;8.690;2023-07-20T12:35:31;3.70;;;1.63;;
4055;SDS011;2043;52.184;8.690;2023-07-20T12:37:59;6.00;;;1.47;;
4055;SDS011;2043;52.184;8.690;2023-07-20T12:40:26;3.50;;;1.70;;
4055;SDS011;2043;52.184;8.690;2023-07-20T12:42:53;3.23;;;1.90;;
4055;SDS011;2043;52.184;8.690;2023-07-20T12:45:20;3.73;;;1.93;;
4055;SDS011;2043;52.184;8.690;2023-07-20T12:47:48;5.23;;;2.30;;
4055;SDS011;2043;52.184;8.690;2023-07-20T12:50:15;4.17;;;2.60;;
4055;SDS011;2043;52.184;8.690;2023-07-20T12:52:42;3.83;;;2.50;;
4055;SDS011;2043;52.184;8.690;2023-07-20T12:55:09;4.10;;;2.50;;
4055;SDS011;2043;52.184;8.690;2023-07-20T12:57:37;4.20;;;3.03;;
4055;SDS011;2043;52.184;8.690;2023-07-20T13:00:05;4.73;;;3.20;;
4055;SDS011;2043;52.184;8.690;2023-07-20T13:02:34;6.27;;;3.73;;
4055;SDS011;2043;52.184;8.690;2023-07-20T13:05:02;4.97;;;4.10;;
4055;SDS011;2043;52.184;8.690;2023-07-20T13:07:31;5.30;;;3.73;;
4055;SDS011;2043;52.184;8.690;2023-07-20T13:10:05;6.60;;;3.40;;
4055;SDS011;2043;52.184;8.690;2023-07-20T13:12:34;6.07;;;3.50;;
4055;SDS011;2043;52.184;8.690;2023-07-20T13:15:02;4.07;;;3.07;;
4055;SDS011;2043;52.184;8.690;2023-07-20T13:17:32;5.63;;;3.80;;
4055;SDS011;2043;52.184;8.690;2023-07-20T13:20:00;4.93;;;3.07;;
4055;SDS011;2043;52.184;8.690;2023-07-20T13:22:29;3.90;;;3.00;;
4055;SDS011;2043;52.184;8.690;2023-07-20T13:24:56;5.20;;;3.60;;
4055;SDS011;2043;52.184;8.690;2023-07-20T13:27:23;5.57;;;3.33;;
4055;SDS011;2043;52.184;8.690;2023-07-20T13:29:51;7.10;;;3.33;;
4055;SDS011;2043;52.184;8.690;2023-07-20T13:32:19;7.53;;;3.53;;
4055;SDS011;2043;52.184;8.690;2023-07-20T13:34:46;5.00;;;3.40;;
4055;SDS011;2043;52.184;8.690;2023-07-20T13:37:14;4.07;;;3.00;;
4055;SDS011;2043;52.184;8.690;2023-07-20T13:39:42;3.70;;;2.53;;
4055;SDS011;2043;52.184;8.690;2023-07-20T13:42:10;4.90;;;2.30;;
4055;SDS011;2043;52.184;8.690;2023-07-20T13:44:38;3.67;;;2.17;;
4055;SDS011;2043;52.184;8.690;2023-07-20T13:47:05;6.27;;;2.40;;
4055;SDS011;2043;52.184;8.690;2023-07-20T13:49:35;4.23;;;2.10;;
4055;SDS011;2043;52.184;8.690;2023-07-20T13:52:11;4.30;;;2.20;;
4055;SDS011;2043;52.184;8.690;2023-07-20T13:54:41;4.63;;;1.83;;
4055;SDS011;2043;52.184;8.690;2023-07-20T13:57:13;3.57;;;1.70;;
4055;SDS011;2043;52.184;8.690;2023-07-20T13:59:41;8.43;;;1.80;;
4055;SDS011;2043;52.184;8.690;2023-07-20T14:02:09;2.77;;;1.33;;
4055;SDS011;2043;52.184;8.690;2023-07-20T14:04:39;4.10;;;1.50;;
4055;SDS011;2043;52.184;8.690;2023-07-20T14:07:06;3.13;;;1.60;;
4055;SDS011;2043;52.184;8.690;2023-07-20T14:09:34;6.10;;;1.60;;
4055;SDS011;2043;52.184;8.690;2023-07-20T14:12:00;3.43;;;1.60;;
4055;SDS011;2043;52.184;8.690;2023-07-20T14:14:30;8.33;;;1.73;;
4055;SDS011;2043;52.184;8.690;2023-07-20T14:16:57;5.90;;;1.90;;
4055;SDS011;2043;52.184;8.690;2023-07-20T14:19:24;3.50;;;1.93;;
4055;SDS011;2043;52.184;8.690;2023-07-20T14:21:50;3.10;;;1.80;;
4055;SDS011;2043;52.184;8.690;2023-07-20T14:24:17;3.70;;;1.73;;
4055;SDS011;2043;52.184;8.690;2023-07-20T14:26:45;4.43;;;1.93;;
4055;SDS011;2043;52.184;8.690;2023-07-20T14:29:17;7.47;;;2.17;;
4055;SDS011;2043;52.184;8.690;2023-07-20T14:31:45;3.63;;;1.80;;
4055;SDS011;2043;52.184;8.690;2023-07-20T14:34:19;3.90;;;1.70;;
4055;SDS011;2043;52.184;8.690;2023-07-20T14:36:45;3.20;;;1.70;;
4055;SDS011;2043;52.184;8.690;2023-07-20T14:39:12;2.80;;;1.53;;
4055;SDS011;2043;52.184;8.690;2023-07-20T14:41:39;5.70;;;1.63;;
4055;SDS011;2043;52.184;8.690;2023-07-20T14:44:08;3.80;;;1.60;;
4055;SDS011;2043;52.184;8.690;2023-07-20T14:46:36;3.83;;;1.33;;
4055;SDS011;2043;52.184;8.690;2023-07-20T14:49:03;3.17;;;1.43;;
4055;SDS011;2043;52.184;8.690;2023-07-20T14:51:30;9.10;;;1.33;;
4055;SDS011;2043;52.184;8.690;2023-07-20T14:54:02;3.17;;;1.60;;
4055;SDS011;2043;52.184;8.690;2023-07-20T14:56:29;5.57;;;1.63;;
4055;SDS011;2043;52.184;8.690;2023-07-20T14:58:55;3.67;;;1.60;;
4055;SDS011;2043;52.184;8.690;2023-07-20T15:01:24;3.47;;;1.57;;
4055;SDS011;2043;52.184;8.690;2023-07-20T15:03:51;3.03;;;1.30;;
4055;SDS011;2043;52.184;8.690;2023-07-20T15:06:23;4.67;;;1.60;;
4055;SDS011;2043;52.184;8.690;2023-07-20T15:08:51;2.70;;;1.30;;
4055;SDS011;2043;52.184;8.690;2023-07-20T15:11:18;3.40;;;1.40;;
4055;SDS011;2043;52.184;8.690;2023-07-20T15:13:45;3.07;;;1.40;;
4055;SDS011;2043;52.184;8.690;2023-07-20T15:16:12;3.43;;;1.57;;
4055;SDS011;2043;52.184;8.690;2023-07-20T15:18:39;3.23;;;1.30;;
4055;SDS011;2043;52.184;8.690;2023-07-20T15:21:14;3.37;;;1.20;;
4055;SDS011;2043;52.184;8.690;2023-07-20T15:23:41;3.47;;;1.57;;
4055;SDS011;2043;52.184;8.690;2023-07-20T15:26:11;2.70;;;1.23;;
4055;SDS011;2043;52.184;8.690;2023-07-20T15:28:38;2.70;;;1.30;;
4055;SDS011;2043;52.184;8.690;2023-07-20T15:31:05;2.80;;;1.40;;
4055;SDS011;2043;52.184;8.690;2023-07-20T15:33:32;3.03;;;1.30;;
4055;SDS011;2043;52.184;8.690;2023-07-20T15:35:59;4.60;;;1.20;;
4055;SDS011;2043;52.184;8.690;2023-07-20T15:38:26;4.50;;;1.40;;
4055;SDS011;2043;52.184;8.690;2023-07-20T15:40:53;5.13;;;1.23;;
4055;SDS011;2043;52.184;8.690;2023-07-20T15:43:21;4.63;;;1.80;;